Terminal Aerodrome Forecast
Issued by NWS

Home | Current Version | Previous Version | Text Only | Print | Product List | Glossary On
Versions: 1 2 3 4 5 6 7 8 9 10 11 12 13 14 15 16 17 18 19 20 21 22 23 24
170
FTUS46 KSEW 041729
TAFSEA
TAF
KSEA 041729Z 0418/0524 36010KT P6SM SCT015 OVC040
      TEMPO 0418/0421 BKN015 OVC030
     FM050500 02006KT P6SM SCT025 BKN050
      TEMPO 0512/0516 BKN025 OVC050=

USA.gov is the U.S. government's official web portal to all federal, state and local government web resources and services.